createdAt,value
2018-07-04T00:00:36.691Z,9.84
2018-07-04T00:01:36.594Z,9.79
2018-07-04T00:02:36.593Z,9.91
2018-07-04T00:03:36.572Z,9.90
2018-07-04T00:04:36.561Z,9.84
2018-07-04T00:05:36.548Z,9.83
2018-07-04T00:06:36.555Z,9.83
2018-07-04T00:07:37.192Z,9.89
2018-07-04T00:08:36.532Z,9.83
2018-07-04T00:09:36.525Z,9.76
2018-07-04T00:10:36.501Z,9.79
2018-07-04T00:11:36.512Z,9.83
2018-07-04T00:12:37.161Z,9.83
2018-07-04T00:13:36.469Z,9.79
2018-07-04T00:14:36.444Z,9.72
2018-07-04T00:16:46.260Z,9.72
2018-07-04T00:17:46.211Z,9.76
2018-07-04T00:18:46.158Z,9.69
2018-07-04T00:19:46.204Z,9.64
2018-07-04T00:20:46.128Z,9.74
2018-07-04T00:21:46.113Z,9.64
2018-07-04T00:22:46.148Z,9.61
2018-07-04T00:23:46.101Z,9.65
2018-07-04T00:24:46.085Z,9.65
2018-07-04T00:25:46.216Z,9.66
2018-07-04T00:26:46.064Z,9.61
2018-07-04T00:27:46.071Z,9.65
2018-07-04T00:28:46.031Z,9.60
2018-07-04T00:29:46.038Z,9.65
2018-07-04T00:31:57.312Z,9.58
2018-07-04T00:32:57.247Z,9.53
2018-07-04T00:33:57.268Z,9.61
2018-07-04T00:34:57.299Z,9.65
2018-07-04T00:35:57.182Z,9.56
2018-07-04T00:36:57.116Z,9.56
2018-07-04T00:37:57.112Z,9.50
2018-07-04T00:38:57.166Z,9.47
2018-07-04T00:39:57.059Z,9.46
2018-07-04T00:40:57.078Z,9.42
2018-07-04T00:41:57.055Z,9.36
2018-07-04T00:42:57.081Z,9.38
2018-07-04T00:43:57.028Z,9.42
2018-07-04T00:44:57.004Z,9.36
2018-07-04T00:45:57.057Z,9.38
2018-07-04T00:46:56.960Z,9.43
2018-07-04T00:47:56.957Z,9.35
2018-07-04T00:48:57.000Z,9.39
2018-07-04T00:49:56.938Z,9.40
2018-07-04T00:50:56.938Z,9.39
2018-07-04T00:51:56.949Z,9.35
2018-07-04T00:52:56.897Z,9.33
2018-07-04T00:53:56.930Z,9.35
2018-07-04T00:54:56.890Z,9.32
2018-07-04T00:55:56.872Z,9.32
2018-07-04T00:56:56.856Z,9.23
2018-07-04T00:57:56.844Z,9.18
2018-07-04T00:58:56.828Z,9.17
2018-07-04T00:59:56.841Z,9.02
2018-07-04T01:00:56.807Z,9.04
2018-07-04T01:01:56.793Z,9.02
2018-07-04T01:02:56.781Z,9.02
2018-07-04T01:03:56.792Z,9.14
2018-07-04T01:04:56.775Z,9.11
2018-07-04T01:05:56.752Z,9.14
2018-07-04T01:06:56.733Z,9.17
2018-07-04T01:07:56.718Z,9.08
2018-07-04T01:08:56.710Z,9.13
2018-07-04T01:09:56.757Z,9.15
2018-07-04T01:10:56.689Z,9.18
2018-07-04T01:11:56.678Z,9.23
2018-07-04T01:12:56.670Z,9.13
2018-07-04T01:13:56.660Z,9.17
2018-07-04T01:14:56.641Z,9.14
2018-07-04T01:15:56.704Z,9.15
2018-07-04T01:16:56.617Z,9.23
2018-07-04T01:18:07.325Z,9.18
2018-07-04T01:18:56.870Z,9.17
2018-07-04T01:19:57.014Z,9.10
2018-07-04T01:20:57.712Z,9.11
2018-07-04T01:21:57.077Z,9.02
2018-07-04T01:24:08.398Z,9.01
2018-07-04T01:25:09.120Z,9.02
2018-07-04T01:26:09.670Z,9.02
2018-07-04T01:27:08.296Z,9.08
2018-07-04T01:28:08.213Z,9.02
2018-07-04T01:29:09.993Z,9.02
2018-07-04T01:30:08.133Z,9.05
2018-07-04T01:31:30.296Z,9.02
2018-07-04T01:32:09.009Z,8.99
2018-07-04T01:33:09.125Z,9.05
2018-07-04T01:34:10.038Z,8.92
2018-07-04T01:35:09.116Z,8.92
2018-07-04T01:36:08.135Z,8.92
2018-07-04T01:37:09.547Z,8.95
2018-07-04T01:38:10.010Z,8.91
2018-07-04T01:39:09.157Z,8.89
2018-07-04T01:40:08.047Z,8.91
2018-07-04T01:41:09.048Z,8.86
2018-07-04T01:42:08.027Z,8.84
2018-07-04T01:43:08.046Z,8.87
2018-07-04T01:44:09.044Z,8.87
2018-07-04T01:45:08.075Z,8.86
2018-07-04T01:46:07.994Z,8.86
2018-07-04T01:47:09.055Z,8.84
2018-07-04T01:48:09.000Z,8.86
2018-07-04T01:49:08.938Z,8.83
2018-07-04T01:50:07.911Z,8.71
2018-07-04T01:51:08.520Z,8.65
2018-07-04T01:52:10.509Z,8.68
2018-07-04T01:53:08.924Z,8.66
2018-07-04T01:54:07.887Z,8.63
2018-07-04T01:55:08.544Z,8.62
2018-07-04T01:56:07.883Z,8.65
2018-07-04T01:57:07.865Z,8.66
2018-07-04T01:58:07.836Z,8.63
2018-07-04T01:59:07.898Z,8.59
2018-07-04T02:00:07.783Z,8.62
2018-07-04T02:01:07.822Z,8.53
2018-07-04T02:02:07.757Z,8.55
2018-07-04T02:03:09.032Z,8.58
2018-07-04T02:04:09.577Z,8.58
2018-07-04T02:05:07.788Z,8.65
2018-07-04T02:06:08.769Z,8.66
2018-07-04T02:07:07.760Z,8.65
2018-07-04T02:08:09.506Z,8.63
2018-07-04T02:09:08.698Z,8.65
2018-07-04T02:10:09.520Z,8.63
2018-07-04T02:11:07.665Z,8.66
2018-07-04T02:12:07.692Z,8.71
2018-07-04T02:13:08.531Z,8.68
2018-07-04T02:14:07.693Z,8.68
2018-07-04T02:15:07.634Z,8.66
2018-07-04T02:16:07.711Z,8.66
2018-07-04T02:17:07.606Z,8.66
2018-07-04T02:18:07.616Z,8.63
2018-07-04T02:19:07.625Z,8.61
2018-07-04T02:20:07.598Z,8.63
2018-07-04T02:21:08.724Z,8.68
2018-07-04T02:22:09.547Z,8.62
2018-07-04T02:23:08.523Z,8.61
2018-07-04T02:24:21.087Z,8.59
2018-07-04T02:25:07.706Z,8.56
2018-07-04T02:26:08.504Z,8.58
2018-07-04T02:27:08.522Z,8.52
2018-07-04T02:28:09.014Z,8.56
2018-07-04T02:29:08.459Z,8.50
2018-07-04T02:30:08.582Z,8.56
2018-07-04T02:31:09.111Z,8.53
2018-07-04T02:32:09.113Z,8.56
2018-07-04T02:33:08.589Z,8.44
2018-07-04T02:34:09.053Z,8.44
2018-07-04T02:36:23.556Z,8.43
2018-07-04T02:37:22.359Z,8.30
2018-07-04T02:38:22.368Z,8.30
2018-07-04T02:39:22.396Z,8.40
2018-07-04T02:40:23.885Z,8.34
2018-07-04T02:41:23.878Z,8.40
2018-07-04T02:42:23.848Z,8.34
2018-07-04T02:45:25.085Z,8.38
2018-07-04T02:47:59.712Z,8.44
2018-07-04T02:48:54.944Z,8.43
2018-07-04T02:49:52.980Z,8.47
2018-07-04T02:51:33.327Z,8.44
2018-07-04T02:51:53.222Z,8.48
2018-07-04T02:52:53.184Z,8.50
2018-07-04T02:54:03.604Z,8.40
2018-07-04T02:54:52.869Z,8.41
2018-07-04T02:55:52.949Z,8.40
2018-07-04T02:56:54.581Z,8.41
2018-07-04T02:57:55.340Z,8.43
2018-07-04T02:58:53.734Z,8.45
2018-07-04T02:59:52.707Z,8.44
2018-07-04T03:00:52.782Z,8.47
2018-07-04T03:01:55.361Z,8.47
2018-07-04T03:03:06.617Z,8.50
2018-07-04T03:03:53.005Z,8.48
2018-07-04T03:04:53.745Z,8.48
2018-07-04T03:05:52.694Z,8.45
2018-07-04T03:07:16.382Z,8.45
2018-07-04T03:07:56.360Z,8.47
2018-07-04T03:08:55.453Z,8.50
2018-07-04T03:09:52.619Z,8.50
2018-07-04T03:10:52.716Z,8.43
2018-07-04T03:11:52.603Z,8.45
2018-07-04T03:17:04.973Z,8.44
2018-07-04T03:18:08.889Z,8.45
2018-07-04T03:19:30.462Z,8.38
2018-07-04T03:20:06.558Z,8.40
2018-07-04T03:21:07.386Z,8.43
2018-07-04T03:22:05.846Z,8.41
2018-07-04T03:23:06.389Z,8.44
2018-07-04T03:24:07.406Z,8.40
2018-07-04T03:25:07.321Z,8.44
2018-07-04T03:26:04.742Z,8.48
2018-07-04T03:27:04.715Z,8.50
2018-07-04T03:28:05.739Z,8.47
2018-07-04T03:29:05.693Z,8.50
2018-07-04T03:30:05.356Z,8.48
2018-07-04T03:31:25.690Z,8.41
2018-07-04T03:32:04.661Z,8.52
2018-07-04T03:33:04.675Z,8.50
2018-07-04T03:34:04.676Z,8.47
2018-07-04T03:35:04.625Z,8.43
2018-07-04T03:36:04.632Z,8.47
2018-07-04T03:37:05.821Z,8.50
2018-07-04T03:38:06.370Z,8.44
2018-07-04T03:39:04.867Z,8.43
2018-07-04T03:40:05.586Z,8.53
2018-07-04T03:41:04.587Z,8.50
2018-07-04T03:42:04.572Z,8.48
2018-07-04T03:43:07.333Z,8.56
2018-07-04T03:44:04.853Z,8.58
2018-07-04T03:45:04.507Z,8.58
2018-07-04T03:46:26.591Z,8.56
2018-07-04T03:47:05.482Z,8.62
2018-07-04T03:48:04.462Z,8.59
2018-07-04T03:49:05.328Z,8.61
2018-07-04T03:50:30.438Z,8.59
2018-07-04T03:51:04.940Z,8.63
2018-07-04T03:52:06.384Z,8.59
2018-07-04T03:53:19.043Z,8.59
2018-07-04T03:54:04.461Z,8.59
2018-07-04T03:56:17.127Z,8.76
2018-07-04T03:57:17.911Z,8.65
2018-07-04T03:59:35.802Z,8.74
2018-07-04T04:00:36.057Z,8.66
2018-07-04T04:01:35.906Z,8.71
2018-07-04T04:02:35.614Z,8.79
2018-07-04T04:03:35.680Z,8.84
2018-07-04T04:04:35.580Z,8.86
2018-07-04T04:05:35.629Z,8.84
2018-07-04T04:06:35.574Z,8.86
2018-07-04T04:07:35.599Z,8.80
2018-07-04T04:08:41.278Z,8.91
2018-07-04T04:09:35.583Z,8.89
2018-07-04T04:10:48.516Z,8.95
2018-07-04T04:11:35.648Z,8.96
2018-07-04T04:12:35.703Z,8.92
2018-07-04T04:13:35.613Z,8.98
2018-07-04T04:14:35.639Z,9.05
2018-07-04T04:15:35.555Z,9.05
2018-07-04T04:16:39.449Z,9.02
2018-07-04T04:17:36.541Z,9.04
2018-07-04T04:18:35.469Z,9.04
2018-07-04T04:19:35.455Z,9.17
2018-07-04T04:20:36.340Z,9.23
2018-07-04T04:21:37.363Z,9.24
2018-07-04T04:22:35.441Z,9.24
2018-07-04T04:23:35.370Z,9.24
2018-07-04T04:24:35.379Z,9.18
2018-07-04T04:25:47.348Z,9.24
2018-07-04T04:26:35.505Z,9.32
2018-07-04T04:27:38.496Z,9.39
2018-07-04T04:28:35.710Z,9.33
2018-07-04T04:29:35.439Z,9.46
2018-07-04T04:30:36.324Z,9.47
2018-07-04T04:32:49.853Z,9.60
2018-07-04T04:34:43.274Z,9.69
2018-07-04T04:35:43.350Z,9.78
2018-07-04T04:36:42.974Z,9.84
2018-07-04T04:37:42.829Z,9.96
2018-07-04T04:38:42.879Z,9.91
2018-07-04T04:39:42.860Z,10.01
2018-07-04T04:40:42.817Z,10.01
2018-07-04T04:41:42.950Z,10.07
2018-07-04T04:42:43.278Z,10.09
2018-07-04T04:43:42.790Z,10.08
2018-07-04T04:44:42.828Z,10.17
2018-07-04T04:45:42.755Z,10.18
2018-07-04T04:48:27.413Z,10.32
2018-07-04T04:48:58.653Z,10.36
2018-07-04T04:49:57.601Z,10.45
2018-07-04T04:50:58.527Z,10.51
2018-07-04T04:51:59.171Z,10.52
2018-07-04T04:53:10.093Z,10.68
2018-07-04T04:53:57.609Z,10.76
2018-07-04T04:56:25.752Z,10.94
2018-07-04T04:57:17.372Z,11.06
2018-07-04T04:58:15.895Z,11.04
2018-07-04T04:59:15.848Z,11.04
2018-07-04T05:00:15.829Z,11.10
2018-07-04T05:03:55.140Z,11.28
2018-07-04T05:04:55.062Z,11.42
2018-07-04T05:05:55.065Z,11.42
2018-07-04T05:06:55.178Z,11.52
2018-07-04T05:07:55.107Z,11.54
2018-07-04T05:08:55.036Z,11.62
2018-07-04T05:09:54.943Z,11.75
2018-07-04T05:10:54.967Z,11.72
2018-07-04T05:11:54.922Z,11.79
2018-07-04T05:12:54.901Z,11.75
2018-07-04T05:13:55.019Z,11.73
2018-07-04T05:14:54.895Z,11.86
2018-07-04T05:15:54.890Z,11.94
2018-07-04T05:18:09.572Z,12.10
2018-07-04T05:19:07.621Z,12.27
2018-07-04T05:20:07.537Z,12.27
2018-07-04T05:21:07.397Z,12.47
2018-07-04T05:22:07.364Z,12.57
2018-07-04T05:23:07.356Z,12.52
2018-07-04T05:24:07.330Z,12.71
2018-07-04T05:25:07.356Z,12.68
2018-07-04T05:26:07.360Z,12.75
2018-07-04T05:27:07.327Z,12.79
2018-07-04T05:28:07.281Z,12.83
2018-07-04T05:29:07.290Z,12.87
2018-07-04T05:30:07.275Z,12.85
2018-07-04T05:31:07.322Z,12.92
2018-07-04T05:33:19.929Z,12.96
2018-07-04T05:34:19.712Z,13.10
2018-07-04T05:35:19.870Z,13.20
2018-07-04T05:36:19.609Z,13.28
2018-07-04T05:37:19.579Z,13.36
2018-07-04T05:38:19.556Z,13.51
2018-07-04T05:39:19.613Z,13.54
2018-07-04T05:40:19.627Z,13.77
2018-07-04T05:41:19.560Z,13.82
2018-07-04T05:42:19.565Z,13.92
2018-07-04T05:43:19.581Z,14.04
2018-07-04T05:44:19.530Z,14.06
2018-07-04T05:45:19.510Z,14.09
2018-07-04T05:47:36.102Z,14.29
2018-07-04T05:48:35.965Z,14.39
2018-07-04T05:49:35.873Z,14.47
2018-07-04T05:50:35.919Z,14.60
2018-07-04T05:51:35.793Z,14.64
2018-07-04T05:52:35.669Z,14.68
2018-07-04T05:53:35.706Z,14.78
2018-07-04T05:54:35.637Z,14.81
2018-07-04T05:55:35.638Z,14.89
2018-07-04T05:56:35.687Z,14.96
2018-07-04T05:57:35.608Z,14.99
2018-07-04T05:58:35.655Z,15.02
2018-07-04T05:59:35.589Z,15.09
2018-07-04T06:00:35.540Z,15.17
2018-07-04T06:02:48.427Z,15.44
2018-07-04T06:03:48.382Z,15.59
2018-07-04T06:04:48.284Z,15.60
2018-07-04T06:05:48.286Z,15.80
2018-07-04T06:06:48.261Z,15.78
2018-07-04T06:07:48.228Z,15.93
2018-07-04T06:08:48.220Z,16.28
2018-07-04T06:09:48.203Z,16.42
2018-07-04T06:10:48.180Z,16.64
2018-07-04T06:11:48.249Z,16.66
2018-07-04T06:12:48.281Z,16.68
2018-07-04T06:13:48.207Z,16.76
2018-07-04T06:14:48.205Z,16.75
2018-07-04T06:15:48.138Z,16.93
2018-07-04T06:18:19.160Z,17.15
2018-07-04T06:19:18.937Z,17.19
2018-07-04T06:20:19.132Z,17.15
2018-07-04T06:21:18.901Z,17.34
2018-07-04T06:22:18.845Z,17.31
2018-07-04T06:23:18.891Z,17.36
2018-07-04T06:24:18.792Z,17.34
2018-07-04T06:25:18.828Z,17.30
2018-07-04T06:26:18.756Z,17.28
2018-07-04T06:27:18.734Z,17.33
2018-07-04T06:28:18.759Z,17.41
2018-07-04T06:29:18.862Z,17.44
2018-07-04T06:30:18.737Z,17.41
2018-07-04T06:31:18.793Z,17.44
2018-07-04T06:33:31.964Z,17.48
2018-07-04T06:34:31.899Z,17.51
2018-07-04T06:35:31.841Z,17.51
2018-07-04T06:36:31.870Z,17.55
2018-07-04T06:37:31.788Z,17.64
2018-07-04T06:38:31.741Z,17.70
2018-07-04T06:39:31.754Z,17.68
2018-07-04T06:40:31.668Z,17.79
2018-07-04T06:41:31.645Z,17.71
2018-07-04T06:42:31.646Z,17.82
2018-07-04T06:43:31.736Z,17.84
2018-07-04T06:44:31.635Z,17.99
2018-07-04T06:45:31.601Z,18.11
2018-07-04T06:47:46.353Z,19.22
2018-07-04T06:48:45.745Z,19.83
2018-07-04T06:49:45.743Z,20.41
2018-07-04T06:50:45.687Z,20.85
2018-07-04T06:51:45.642Z,21.29
2018-07-04T06:52:45.697Z,21.52
2018-07-04T06:53:45.665Z,21.84
2018-07-04T06:54:45.659Z,22.14
2018-07-04T06:55:45.592Z,22.33
2018-07-04T06:57:02.395Z,22.57
2018-07-04T06:57:46.827Z,22.82
2018-07-04T06:58:46.974Z,23.09
2018-07-04T06:59:55.776Z,23.22
2018-07-04T07:00:45.772Z,23.54
2018-07-04T07:06:10.916Z,24.57
2018-07-04T07:08:32.308Z,24.84
2018-07-04T07:09:32.585Z,25.03
2018-07-04T07:10:33.150Z,25.18
2018-07-04T07:11:32.110Z,25.24
2018-07-04T07:12:34.019Z,25.43
2018-07-04T07:13:32.033Z,25.57
2018-07-04T07:14:33.990Z,25.64
2018-07-04T07:15:32.932Z,25.70
2018-07-04T07:16:34.575Z,25.73
2018-07-04T07:17:53.016Z,25.83
2018-07-04T07:18:32.030Z,25.91
2018-07-04T07:19:31.947Z,25.94
2018-07-04T07:20:34.457Z,26.09
2018-07-04T07:21:31.998Z,26.09
2018-07-04T07:22:32.532Z,26.25
2018-07-04T07:23:32.988Z,26.21
2018-07-04T07:24:33.401Z,26.29
2018-07-04T07:25:32.526Z,26.25
2018-07-04T07:26:46.936Z,26.39
2018-07-04T07:27:31.808Z,26.40
2018-07-04T07:28:33.412Z,26.57
2018-07-04T07:29:33.516Z,26.65
2018-07-04T07:30:31.893Z,26.63
2018-07-04T07:31:31.789Z,26.51
2018-07-04T07:33:12.017Z,26.58
2018-07-04T07:33:31.727Z,26.66
2018-07-04T07:34:31.733Z,26.67
2018-07-04T07:35:31.702Z,26.80
2018-07-04T07:36:32.015Z,26.80
2018-07-04T07:37:31.656Z,26.88
2018-07-04T07:38:31.654Z,26.88
2018-07-04T07:39:31.679Z,26.82
2018-07-04T07:40:31.639Z,26.82
2018-07-04T07:41:33.614Z,26.76
2018-07-04T07:42:32.608Z,26.84
2018-07-04T07:43:32.433Z,27.02
2018-07-04T07:44:33.622Z,27.10
2018-07-04T07:45:32.399Z,27.28
2018-07-04T07:46:31.605Z,27.29
2018-07-04T07:47:31.634Z,27.17
2018-07-04T07:48:31.560Z,27.13
2018-07-04T07:49:31.588Z,27.24
2018-07-04T07:50:31.559Z,27.31
2018-07-04T07:51:31.505Z,27.24
2018-07-04T07:52:31.494Z,27.13
2018-07-04T07:53:31.499Z,27.12
2018-07-04T07:54:31.532Z,27.22
2018-07-04T07:55:31.630Z,27.17
2018-07-04T07:56:31.449Z,27.32
2018-07-04T07:57:34.406Z,27.37
2018-07-04T07:58:31.943Z,27.29
2018-07-04T07:59:31.415Z,27.31
2018-07-04T08:00:31.415Z,27.34
2018-07-04T08:01:31.410Z,27.32
2018-07-04T08:02:31.399Z,27.24
2018-07-04T08:03:31.409Z,27.12
2018-07-04T08:04:31.346Z,27.14
2018-07-04T08:05:31.353Z,27.10
2018-07-04T08:06:31.446Z,27.10
2018-07-04T08:07:31.370Z,27.18
2018-07-04T08:08:31.333Z,27.18
2018-07-04T08:09:31.346Z,27.28
2018-07-04T08:10:31.357Z,27.25
2018-07-04T08:11:31.312Z,27.43
2018-07-04T08:12:31.456Z,27.34
2018-07-04T08:13:31.295Z,27.41
2018-07-04T08:14:31.300Z,27.43
2018-07-04T08:15:31.265Z,27.49
2018-07-04T08:16:32.271Z,27.54
2018-07-04T08:17:43.226Z,27.49
2018-07-04T08:18:31.402Z,27.75
2018-07-04T08:19:31.582Z,27.79
2018-07-04T08:20:31.482Z,27.87
2018-07-04T08:21:31.351Z,27.81
2018-07-04T08:22:31.300Z,27.97
2018-07-04T08:23:31.268Z,28.04
2018-07-04T08:24:31.282Z,28.09
2018-07-04T08:25:31.239Z,28.03
2018-07-04T08:26:31.185Z,28.09
2018-07-04T08:27:31.210Z,28.15
2018-07-04T08:28:31.273Z,28.21
2018-07-04T08:29:31.252Z,28.15
2018-07-04T08:30:41.209Z,28.14
2018-07-04T08:31:31.377Z,28.15
2018-07-04T08:32:31.204Z,28.09
2018-07-04T08:33:31.299Z,28.09
2018-07-04T08:34:31.082Z,28.14
2018-07-04T08:35:31.063Z,28.11
2018-07-04T08:36:31.030Z,28.12
2018-07-04T08:37:31.075Z,28.24
2018-07-04T08:38:31.004Z,28.24
2018-07-04T08:39:30.985Z,28.25
2018-07-04T08:40:30.984Z,28.48
2018-07-04T08:41:30.986Z,28.54
2018-07-04T08:42:30.957Z,28.55
2018-07-04T08:43:30.990Z,28.41
2018-07-04T08:44:30.945Z,28.27
2018-07-04T08:45:30.952Z,28.33
2018-07-04T08:46:30.907Z,28.46
2018-07-04T08:47:30.956Z,28.39
2018-07-04T08:48:30.883Z,28.46
2018-07-04T08:49:30.868Z,28.36
2018-07-04T08:50:30.895Z,28.36
2018-07-04T08:51:30.862Z,28.27
2018-07-04T08:52:30.915Z,28.21
2018-07-04T08:57:00.185Z,27.78
2018-07-04T08:58:00.150Z,27.82
2018-07-04T08:59:00.219Z,27.94
2018-07-04T08:59:59.997Z,27.99
2018-07-04T09:00:59.930Z,28.09
2018-07-04T09:01:59.935Z,28.04
2018-07-04T09:02:59.896Z,27.84
2018-07-04T09:03:59.895Z,27.67
2018-07-04T09:04:59.882Z,27.69
2018-07-04T09:05:59.896Z,27.66
2018-07-04T09:06:59.876Z,27.75
2018-07-04T09:07:59.906Z,27.81
2018-07-04T09:08:59.825Z,27.93
2018-07-04T09:09:59.834Z,28.14
2018-07-04T09:10:59.807Z,28.18
2018-07-04T09:11:59.849Z,28.09
2018-07-04T09:12:59.783Z,28.14
2018-07-04T09:13:59.776Z,28.02
2018-07-04T09:14:59.805Z,27.93
2018-07-04T09:15:59.751Z,27.82
2018-07-04T09:16:59.765Z,27.66
2018-07-04T09:17:59.734Z,27.37
2018-07-04T09:18:59.712Z,27.22
2018-07-04T09:19:59.727Z,27.12
2018-07-04T09:20:59.705Z,27.27
2018-07-04T09:21:59.682Z,27.17
2018-07-04T09:22:59.723Z,27.24
2018-07-04T09:23:59.676Z,27.36
2018-07-04T09:24:59.654Z,27.27
2018-07-04T09:25:59.648Z,27.37
2018-07-04T09:26:59.688Z,27.51
2018-07-04T09:27:59.639Z,27.67
2018-07-04T09:28:59.614Z,27.77
2018-07-04T09:29:59.619Z,27.85
2018-07-04T09:30:59.604Z,27.92
2018-07-04T09:31:59.582Z,27.85
2018-07-04T09:32:59.607Z,27.78
2018-07-04T09:33:59.580Z,27.77
2018-07-04T09:34:59.552Z,27.75
2018-07-04T09:35:59.541Z,27.93
2018-07-04T09:36:59.528Z,28.03
2018-07-04T09:37:59.561Z,28.18
2018-07-04T09:38:59.510Z,28.41
2018-07-04T09:39:59.553Z,28.61
2018-07-04T09:40:59.477Z,28.86
2018-07-04T09:41:59.473Z,28.92
2018-07-04T09:42:59.494Z,29.05
2018-07-04T09:43:59.492Z,29.08
2018-07-04T09:44:59.452Z,29.16
2018-07-04T09:45:59.470Z,29.23
2018-07-04T09:47:10.233Z,29.28
2018-07-04T09:47:59.411Z,29.27
2018-07-04T09:48:59.439Z,29.33
2018-07-04T09:49:59.407Z,29.21
2018-07-04T09:50:59.382Z,29.24
2018-07-04T09:51:59.440Z,29.33
2018-07-04T09:52:59.378Z,29.39
2018-07-04T09:53:59.422Z,29.45
2018-07-04T09:54:59.387Z,29.53
2018-07-04T09:55:59.330Z,29.60
2018-07-04T09:56:59.344Z,29.61
2018-07-04T09:58:00.231Z,29.70
2018-07-04T09:58:59.301Z,29.74
2018-07-04T09:59:59.319Z,29.63
2018-07-04T10:00:59.266Z,28.85
2018-07-04T10:02:20.367Z,28.30
2018-07-04T10:02:59.297Z,28.07
2018-07-04T10:03:59.256Z,28.17
2018-07-04T10:04:59.249Z,28.29
2018-07-04T10:05:59.294Z,28.46
2018-07-04T10:06:59.234Z,28.71
2018-07-04T10:07:59.216Z,28.89
2018-07-04T10:08:59.210Z,28.89
2018-07-04T10:09:59.230Z,29.05
2018-07-04T10:10:59.320Z,29.19
2018-07-04T10:11:59.179Z,29.26
2018-07-04T10:13:05.695Z,29.34
2018-07-04T10:13:59.176Z,29.37
2018-07-04T10:14:59.205Z,29.42
2018-07-04T10:15:59.106Z,29.52
2018-07-04T10:16:59.093Z,29.60
2018-07-04T10:17:59.088Z,29.61
2018-07-04T10:18:59.145Z,29.65
2018-07-04T10:19:59.079Z,29.76
2018-07-04T10:20:59.118Z,29.83
2018-07-04T10:21:59.049Z,29.87
2018-07-04T10:22:59.082Z,29.97
2018-07-04T10:23:59.065Z,30.13
2018-07-04T10:24:59.011Z,30.07
2018-07-04T10:25:59.020Z,29.94
2018-07-04T10:26:59.003Z,29.86
2018-07-04T10:27:59.028Z,29.92
2018-07-04T10:28:58.981Z,29.90
2018-07-04T10:29:58.996Z,30.17
2018-07-04T10:30:59.046Z,30.27
2018-07-04T10:31:58.960Z,30.35
2018-07-04T10:32:58.942Z,30.08
2018-07-04T10:33:58.923Z,29.45
2018-07-04T10:34:58.912Z,29.04
2018-07-04T10:35:59.015Z,29.19
2018-07-04T10:36:58.929Z,29.21
2018-07-04T10:37:58.880Z,29.33
2018-07-04T10:38:58.932Z,29.46
2018-07-04T10:39:58.895Z,29.43
2018-07-04T10:40:58.847Z,29.52
2018-07-04T10:41:59.008Z,29.57
2018-07-04T10:42:58.863Z,29.65
2018-07-04T10:43:58.862Z,29.74
2018-07-04T10:44:58.827Z,29.67
2018-07-04T10:45:58.812Z,29.73
2018-07-04T10:46:58.944Z,29.79
2018-07-04T10:47:59.771Z,29.86
2018-07-04T10:48:58.809Z,29.95
2018-07-04T10:49:58.751Z,30.15
2018-07-04T10:50:58.755Z,30.07
2018-07-04T10:51:58.724Z,30.17
2018-07-04T10:52:58.745Z,30.15
2018-07-04T10:53:58.704Z,30.22
2018-07-04T10:54:58.705Z,30.35
2018-07-04T10:55:58.743Z,30.37
2018-07-04T10:56:58.684Z,30.45
2018-07-04T10:57:58.689Z,30.58
2018-07-04T10:58:58.696Z,30.70
2018-07-04T10:59:58.653Z,30.69
2018-07-04T11:00:58.644Z,30.73
2018-07-04T11:01:58.656Z,30.88
2018-07-04T11:02:58.658Z,30.88
2018-07-04T11:03:58.622Z,30.83
2018-07-04T11:04:58.609Z,30.97
2018-07-04T11:05:58.586Z,30.92
2018-07-04T11:06:58.604Z,30.95
2018-07-04T11:07:58.620Z,30.97
2018-07-04T11:08:58.552Z,30.97
2018-07-04T11:09:58.578Z,31.09
2018-07-04T11:10:58.601Z,31.10
2018-07-04T11:11:59.301Z,31.12
2018-07-04T11:13:02.316Z,31.10
2018-07-04T11:13:59.586Z,30.95
2018-07-04T11:15:03.336Z,30.38
2018-07-04T11:15:58.488Z,30.15
2018-07-04T11:16:58.622Z,30.07
2018-07-04T11:18:00.418Z,30.01
2018-07-04T11:30:20.030Z,29.74
2018-07-04T11:36:07.150Z,29.94
2018-07-04T12:08:09.514Z,29.90
2018-07-04T12:10:35.973Z,29.89
2018-07-04T12:11:35.817Z,30.00
2018-07-04T12:19:43.274Z,31.16
2018-07-04T12:20:21.972Z,31.16
2018-07-04T12:30:13.982Z,31.88
2018-07-04T12:32:36.728Z,31.85
2018-07-04T12:39:25.399Z,31.10
2018-07-04T12:48:53.236Z,31.56
2018-07-04T12:49:52.656Z,31.85
2018-07-04T12:50:52.771Z,31.89
2018-07-04T13:01:59.298Z,31.85
2018-07-04T13:04:49.375Z,31.17
2018-07-04T13:07:08.645Z,30.70
2018-07-04T13:14:35.931Z,30.62
2018-07-04T13:17:27.652Z,30.82
2018-07-04T13:19:41.341Z,31.09
2018-07-04T13:20:41.144Z,31.21
2018-07-04T13:21:41.604Z,31.35
2018-07-04T13:22:41.198Z,31.39
2018-07-04T13:23:41.039Z,31.62
2018-07-04T13:24:41.022Z,31.69
2018-07-04T13:25:41.011Z,31.88
2018-07-04T13:26:40.972Z,31.88
2018-07-04T13:27:40.957Z,32.03
2018-07-04T13:29:12.874Z,31.95
2018-07-04T13:29:41.068Z,32.03
2018-07-04T13:33:22.899Z,31.84
2018-07-04T13:34:23.610Z,31.86
2018-07-04T13:35:22.648Z,31.89
2018-07-04T13:36:22.466Z,31.84
2018-07-04T13:37:22.512Z,31.80
2018-07-04T13:38:22.549Z,31.85
2018-07-04T13:39:22.419Z,31.81
2018-07-04T13:40:22.651Z,31.84
2018-07-04T13:41:22.634Z,31.81
2018-07-04T13:42:22.566Z,31.80
2018-07-04T13:43:22.497Z,31.81
2018-07-04T15:17:23.797Z,31.80
2018-07-04T15:18:11.523Z,31.81
